sensor_id;sensor_type;location;lat;lon;timestamp;P1;durP1;ratioP1;P2;durP2;ratioP2
28772;SDS011;15925;51.222;5.678;2022-09-30T00:01:31;4.40;;;2.78;;
28772;SDS011;15925;51.222;5.678;2022-09-30T00:03:59;6.07;;;2.20;;
28772;SDS011;15925;51.222;5.678;2022-09-30T00:06:25;2.65;;;1.85;;
28772;SDS011;15925;51.222;5.678;2022-09-30T00:08:54;1.98;;;1.55;;
28772;SDS011;15925;51.222;5.678;2022-09-30T00:13:50;3.28;;;1.13;;
28772;SDS011;15925;51.222;5.678;2022-09-30T00:16:18;7.93;;;1.00;;
28772;SDS011;15925;51.222;5.678;2022-09-30T00:18:45;0.60;;;0.60;;
28772;SDS011;15925;51.222;5.678;2022-09-30T00:21:11;0.82;;;0.70;;
28772;SDS011;15925;51.222;5.678;2022-09-30T00:23:39;0.63;;;0.50;;
28772;SDS011;15925;51.222;5.678;2022-09-30T00:26:07;0.25;;;0.25;;
28772;SDS011;15925;51.222;5.678;2022-09-30T00:28:38;0.40;;;0.38;;
28772;SDS011;15925;51.222;5.678;2022-09-30T00:33:31;2.03;;;1.20;;
28772;SDS011;15925;51.222;5.678;2022-09-30T00:35:58;1.25;;;1.15;;
28772;SDS011;15925;51.222;5.678;2022-09-30T00:38:24;7.55;;;1.02;;
28772;SDS011;15925;51.222;5.678;2022-09-30T00:40:51;4.22;;;1.73;;
28772;SDS011;15925;51.222;5.678;2022-09-30T00:43:19;3.58;;;1.73;;
28772;SDS011;15925;51.222;5.678;2022-09-30T00:46:02;6.68;;;2.38;;
28772;SDS011;15925;51.222;5.678;2022-09-30T00:48:30;4.88;;;1.80;;
28772;SDS011;15925;51.222;5.678;2022-09-30T00:50:59;2.10;;;1.67;;
28772;SDS011;15925;51.222;5.678;2022-09-30T00:58:22;9.23;;;1.30;;
28772;SDS011;15925;51.222;5.678;2022-09-30T01:00:58;4.07;;;1.27;;
28772;SDS011;15925;51.222;5.678;2022-09-30T01:03:27;1.08;;;1.02;;
28772;SDS011;15925;51.222;5.678;2022-09-30T01:06:15;3.80;;;1.80;;
28772;SDS011;15925;51.222;5.678;2022-09-30T01:08:41;1.50;;;1.10;;
28772;SDS011;15925;51.222;5.678;2022-09-30T01:11:08;10.48;;;1.35;;
28772;SDS011;15925;51.222;5.678;2022-09-30T01:13:34;2.00;;;0.90;;
28772;SDS011;15925;51.222;5.678;2022-09-30T01:27:36;0.95;;;0.52;;
28772;SDS011;15925;51.222;5.678;2022-09-30T01:33:32;1.17;;;0.57;;
28772;SDS011;15925;51.222;5.678;2022-09-30T01:38:41;0.43;;;0.30;;
28772;SDS011;15925;51.222;5.678;2022-09-30T01:41:33;0.35;;;0.35;;
28772;SDS011;15925;51.222;5.678;2022-09-30T01:46:41;1.30;;;0.60;;
28772;SDS011;15925;51.222;5.678;2022-09-30T01:49:18;1.05;;;0.63;;
28772;SDS011;15925;51.222;5.678;2022-09-30T01:52:00;1.48;;;0.70;;
28772;SDS011;15925;51.222;5.678;2022-09-30T01:59:46;1.77;;;0.82;;
28772;SDS011;15925;51.222;5.678;2022-09-30T02:04:58;1.75;;;1.52;;
28772;SDS011;15925;51.222;5.678;2022-09-30T02:07:59;4.03;;;2.53;;
28772;SDS011;15925;51.222;5.678;2022-09-30T02:13:23;5.95;;;1.20;;
28772;SDS011;15925;51.222;5.678;2022-09-30T02:15:56;1.52;;;1.30;;
28772;SDS011;15925;51.222;5.678;2022-09-30T02:18:28;1.10;;;1.05;;
28772;SDS011;15925;51.222;5.678;2022-09-30T02:20:59;4.00;;;2.05;;
28772;SDS011;15925;51.222;5.678;2022-09-30T02:23:28;1.45;;;1.00;;
28772;SDS011;15925;51.222;5.678;2022-09-30T02:25:59;1.42;;;1.00;;
28772;SDS011;15925;51.222;5.678;2022-09-30T02:28:31;2.67;;;1.27;;
28772;SDS011;15925;51.222;5.678;2022-09-30T02:31:01;8.00;;;1.45;;
28772;SDS011;15925;51.222;5.678;2022-09-30T02:36:42;0.77;;;0.60;;
28772;SDS011;15925;51.222;5.678;2022-09-30T02:39:32;1.80;;;1.42;;
28772;SDS011;15925;51.222;5.678;2022-09-30T02:42:16;11.05;;;1.23;;
28772;SDS011;15925;51.222;5.678;2022-09-30T02:44:49;5.35;;;1.75;;
28772;SDS011;15925;51.222;5.678;2022-09-30T02:50:13;11.93;;;1.77;;
28772;SDS011;15925;51.222;5.678;2022-09-30T02:55:25;1.85;;;1.48;;
28772;SDS011;15925;51.222;5.678;2022-09-30T02:58:19;1.30;;;1.13;;
28772;SDS011;15925;51.222;5.678;2022-09-30T03:00:50;22.02;;;1.73;;
28772;SDS011;15925;51.222;5.678;2022-09-30T03:03:20;3.13;;;1.38;;
28772;SDS011;15925;51.222;5.678;2022-09-30T03:05:51;39.17;;;1.90;;
28772;SDS011;15925;51.222;5.678;2022-09-30T03:08:17;3.13;;;1.52;;
28772;SDS011;15925;51.222;5.678;2022-09-30T03:10:43;2.38;;;1.77;;
28772;SDS011;15925;51.222;5.678;2022-09-30T03:15:54;2.67;;;1.50;;
28772;SDS011;15925;51.222;5.678;2022-09-30T03:18:53;5.80;;;2.22;;
28772;SDS011;15925;51.222;5.678;2022-09-30T03:26:44;1.45;;;0.80;;
28772;SDS011;15925;51.222;5.678;2022-09-30T03:37:43;1.10;;;0.70;;
28772;SDS011;15925;51.222;5.678;2022-09-30T03:42:52;2.10;;;1.05;;
28772;SDS011;15925;51.222;5.678;2022-09-30T03:47:57;2.42;;;1.13;;
28772;SDS011;15925;51.222;5.678;2022-09-30T03:50:26;1.27;;;1.02;;
28772;SDS011;15925;51.222;5.678;2022-09-30T03:52:53;2.28;;;1.27;;
28772;SDS011;15925;51.222;5.678;2022-09-30T03:55:19;3.17;;;1.90;;
28772;SDS011;15925;51.222;5.678;2022-09-30T03:57:47;4.65;;;1.75;;
28772;SDS011;15925;51.222;5.678;2022-09-30T04:02:40;1.80;;;1.42;;
28772;SDS011;15925;51.222;5.678;2022-09-30T04:05:09;2.03;;;1.70;;
28772;SDS011;15925;51.222;5.678;2022-09-30T04:07:34;6.03;;;1.38;;
28772;SDS011;15925;51.222;5.678;2022-09-30T04:10:02;2.45;;;1.52;;
28772;SDS011;15925;51.222;5.678;2022-09-30T04:14:54;10.18;;;1.77;;
28772;SDS011;15925;51.222;5.678;2022-09-30T04:17:20;1.53;;;1.00;;
28772;SDS011;15925;51.222;5.678;2022-09-30T04:19:45;5.43;;;1.42;;
28772;SDS011;15925;51.222;5.678;2022-09-30T04:22:12;5.28;;;1.05;;
28772;SDS011;15925;51.222;5.678;2022-09-30T04:24:37;2.00;;;1.07;;
28772;SDS011;15925;51.222;5.678;2022-09-30T04:27:03;0.83;;;0.80;;
28772;SDS011;15925;51.222;5.678;2022-09-30T04:29:29;4.23;;;1.20;;
28772;SDS011;15925;51.222;5.678;2022-09-30T04:31:55;2.93;;;1.67;;
28772;SDS011;15925;51.222;5.678;2022-09-30T04:34:21;3.35;;;1.42;;
28772;SDS011;15925;51.222;5.678;2022-09-30T04:36:47;5.13;;;2.40;;
28772;SDS011;15925;51.222;5.678;2022-09-30T04:39:13;3.90;;;1.57;;
28772;SDS011;15925;51.222;5.678;2022-09-30T04:41:38;4.73;;;1.40;;
28772;SDS011;15925;51.222;5.678;2022-09-30T04:44:04;1.73;;;1.25;;
28772;SDS011;15925;51.222;5.678;2022-09-30T04:46:34;0.88;;;0.88;;
28772;SDS011;15925;51.222;5.678;2022-09-30T04:49:02;1.48;;;1.38;;
28772;SDS011;15925;51.222;5.678;2022-09-30T04:51:29;1.67;;;1.15;;
28772;SDS011;15925;51.222;5.678;2022-09-30T04:53:54;3.93;;;1.90;;
28772;SDS011;15925;51.222;5.678;2022-09-30T04:56:20;3.63;;;1.73;;
28772;SDS011;15925;51.222;5.678;2022-09-30T04:58:48;8.13;;;2.78;;
28772;SDS011;15925;51.222;5.678;2022-09-30T05:01:15;11.35;;;2.63;;
28772;SDS011;15925;51.222;5.678;2022-09-30T05:03:42;6.90;;;2.47;;
28772;SDS011;15925;51.222;5.678;2022-09-30T05:06:09;4.53;;;2.53;;
28772;SDS011;15925;51.222;5.678;2022-09-30T05:08:35;4.90;;;2.53;;
28772;SDS011;15925;51.222;5.678;2022-09-30T05:11:04;7.20;;;2.83;;
28772;SDS011;15925;51.222;5.678;2022-09-30T05:13:37;5.70;;;3.13;;
28772;SDS011;15925;51.222;5.678;2022-09-30T05:16:04;9.57;;;3.88;;
28772;SDS011;15925;51.222;5.678;2022-09-30T05:18:31;5.63;;;2.83;;
28772;SDS011;15925;51.222;5.678;2022-09-30T05:20:58;4.18;;;2.28;;
28772;SDS011;15925;51.222;5.678;2022-09-30T05:23:26;4.35;;;2.15;;
28772;SDS011;15925;51.222;5.678;2022-09-30T05:25:53;4.18;;;2.15;;
28772;SDS011;15925;51.222;5.678;2022-09-30T05:28:19;4.63;;;2.83;;
28772;SDS011;15925;51.222;5.678;2022-09-30T05:30:45;5.68;;;2.45;;
28772;SDS011;15925;51.222;5.678;2022-09-30T05:33:11;4.70;;;2.72;;
28772;SDS011;15925;51.222;5.678;2022-09-30T05:35:41;5.50;;;2.47;;
28772;SDS011;15925;51.222;5.678;2022-09-30T05:38:07;5.40;;;3.13;;
28772;SDS011;15925;51.222;5.678;2022-09-30T05:40:37;3.63;;;2.10;;
28772;SDS011;15925;51.222;5.678;2022-09-30T05:43:04;5.35;;;2.67;;
28772;SDS011;15925;51.222;5.678;2022-09-30T05:45:30;4.60;;;2.28;;
28772;SDS011;15925;51.222;5.678;2022-09-30T05:47:56;4.27;;;1.40;;
28772;SDS011;15925;51.222;5.678;2022-09-30T05:50:22;3.27;;;1.37;;
28772;SDS011;15925;51.222;5.678;2022-09-30T05:52:49;4.22;;;1.98;;
28772;SDS011;15925;51.222;5.678;2022-09-30T05:55:16;3.10;;;2.10;;
28772;SDS011;15925;51.222;5.678;2022-09-30T05:57:42;3.25;;;1.38;;
28772;SDS011;15925;51.222;5.678;2022-09-30T06:00:12;1.92;;;1.33;;
28772;SDS011;15925;51.222;5.678;2022-09-30T06:02:38;3.72;;;1.77;;
28772;SDS011;15925;51.222;5.678;2022-09-30T06:05:05;2.83;;;1.75;;
28772;SDS011;15925;51.222;5.678;2022-09-30T06:07:35;2.05;;;1.38;;
28772;SDS011;15925;51.222;5.678;2022-09-30T06:10:03;4.30;;;2.53;;
28772;SDS011;15925;51.222;5.678;2022-09-30T06:12:31;4.28;;;1.70;;
28772;SDS011;15925;51.222;5.678;2022-09-30T06:14:56;7.37;;;2.33;;
28772;SDS011;15925;51.222;5.678;2022-09-30T06:17:22;5.57;;;3.03;;
28772;SDS011;15925;51.222;5.678;2022-09-30T06:19:48;8.57;;;3.37;;
28772;SDS011;15925;51.222;5.678;2022-09-30T06:22:14;7.67;;;3.57;;
28772;SDS011;15925;51.222;5.678;2022-09-30T06:24:42;5.90;;;3.17;;
28772;SDS011;15925;51.222;5.678;2022-09-30T06:29:35;6.68;;;2.42;;
28772;SDS011;15925;51.222;5.678;2022-09-30T06:32:01;6.80;;;3.30;;
28772;SDS011;15925;51.222;5.678;2022-09-30T06:34:27;9.23;;;3.73;;
28772;SDS011;15925;51.222;5.678;2022-09-30T06:36:52;5.17;;;2.43;;
28772;SDS011;15925;51.222;5.678;2022-09-30T06:39:18;6.20;;;3.83;;
28772;SDS011;15925;51.222;5.678;2022-09-30T06:41:44;8.27;;;2.33;;
28772;SDS011;15925;51.222;5.678;2022-09-30T06:44:22;6.43;;;3.80;;
28772;SDS011;15925;51.222;5.678;2022-09-30T06:46:48;10.23;;;3.87;;
28772;SDS011;15925;51.222;5.678;2022-09-30T06:49:14;17.53;;;3.40;;
28772;SDS011;15925;51.222;5.678;2022-09-30T06:51:40;5.10;;;2.92;;
28772;SDS011;15925;51.222;5.678;2022-09-30T06:54:06;17.07;;;4.23;;
28772;SDS011;15925;51.222;5.678;2022-09-30T06:56:33;14.35;;;3.72;;
28772;SDS011;15925;51.222;5.678;2022-09-30T06:58:59;16.13;;;3.90;;
28772;SDS011;15925;51.222;5.678;2022-09-30T07:01:25;8.70;;;4.40;;
28772;SDS011;15925;51.222;5.678;2022-09-30T07:03:53;15.27;;;4.45;;
28772;SDS011;15925;51.222;5.678;2022-09-30T07:06:22;9.65;;;4.97;;
28772;SDS011;15925;51.222;5.678;2022-09-30T07:08:50;9.65;;;4.47;;
28772;SDS011;15925;51.222;5.678;2022-09-30T07:11:15;9.83;;;4.07;;
28772;SDS011;15925;51.222;5.678;2022-09-30T07:13:42;13.27;;;5.05;;
28772;SDS011;15925;51.222;5.678;2022-09-30T07:16:10;14.40;;;6.15;;
28772;SDS011;15925;51.222;5.678;2022-09-30T07:18:37;14.88;;;5.22;;
28772;SDS011;15925;51.222;5.678;2022-09-30T07:21:06;13.02;;;6.22;;
28772;SDS011;15925;51.222;5.678;2022-09-30T07:23:32;13.45;;;5.80;;
28772;SDS011;15925;51.222;5.678;2022-09-30T07:25:59;14.67;;;7.63;;
28772;SDS011;15925;51.222;5.678;2022-09-30T07:28:29;11.82;;;6.13;;
28772;SDS011;15925;51.222;5.678;2022-09-30T07:31:00;14.40;;;7.68;;
28772;SDS011;15925;51.222;5.678;2022-09-30T07:33:32;14.02;;;7.53;;
28772;SDS011;15925;51.222;5.678;2022-09-30T07:35:59;15.57;;;7.55;;
28772;SDS011;15925;51.222;5.678;2022-09-30T07:38:29;19.33;;;7.20;;
28772;SDS011;15925;51.222;5.678;2022-09-30T07:43:24;21.65;;;8.30;;
28772;SDS011;15925;51.222;5.678;2022-09-30T07:46:01;19.42;;;8.40;;
28772;SDS011;15925;51.222;5.678;2022-09-30T07:48:33;24.23;;;10.05;;
28772;SDS011;15925;51.222;5.678;2022-09-30T07:51:14;27.10;;;9.25;;
28772;SDS011;15925;51.222;5.678;2022-09-30T07:53:41;26.20;;;11.38;;
28772;SDS011;15925;51.222;5.678;2022-09-30T07:56:08;19.35;;;10.55;;
28772;SDS011;15925;51.222;5.678;2022-09-30T07:58:35;24.05;;;9.60;;
28772;SDS011;15925;51.222;5.678;2022-09-30T08:01:01;23.10;;;11.13;;
28772;SDS011;15925;51.222;5.678;2022-09-30T08:03:27;31.40;;;11.10;;
28772;SDS011;15925;51.222;5.678;2022-09-30T08:05:53;27.50;;;11.07;;
28772;SDS011;15925;51.222;5.678;2022-09-30T08:08:19;35.67;;;12.30;;
28772;SDS011;15925;51.222;5.678;2022-09-30T08:10:45;30.67;;;12.82;;
28772;SDS011;15925;51.222;5.678;2022-09-30T08:13:11;24.57;;;11.17;;
28772;SDS011;15925;51.222;5.678;2022-09-30T08:15:38;25.73;;;11.02;;
28772;SDS011;15925;51.222;5.678;2022-09-30T08:18:04;30.02;;;12.07;;
28772;SDS011;15925;51.222;5.678;2022-09-30T08:20:30;25.73;;;11.45;;
28772;SDS011;15925;51.222;5.678;2022-09-30T08:22:56;25.27;;;12.23;;
28772;SDS011;15925;51.222;5.678;2022-09-30T08:25:22;32.13;;;12.52;;
28772;SDS011;15925;51.222;5.678;2022-09-30T08:27:49;33.00;;;12.20;;
28772;SDS011;15925;51.222;5.678;2022-09-30T08:30:15;26.55;;;13.70;;
28772;SDS011;15925;51.222;5.678;2022-09-30T08:32:41;38.00;;;15.60;;
28772;SDS011;15925;51.222;5.678;2022-09-30T08:35:07;27.70;;;14.20;;
28772;SDS011;15925;51.222;5.678;2022-09-30T08:37:32;34.37;;;14.77;;
28772;SDS011;15925;51.222;5.678;2022-09-30T08:39:59;31.88;;;13.90;;
28772;SDS011;15925;51.222;5.678;2022-09-30T08:51:05;29.52;;;12.88;;
28772;SDS011;15925;51.222;5.678;2022-09-30T08:53:29;27.85;;;11.48;;
28772;SDS011;15925;51.222;5.678;2022-09-30T08:56:00;32.95;;;11.82;;
28772;SDS011;15925;51.222;5.678;2022-09-30T08:58:40;35.47;;;12.02;;
28772;SDS011;15925;51.222;5.678;2022-09-30T09:01:14;22.77;;;11.50;;
28772;SDS011;15925;51.222;5.678;2022-09-30T09:03:56;25.48;;;10.55;;
28772;SDS011;15925;51.222;5.678;2022-09-30T09:12:27;23.30;;;9.73;;
28772;SDS011;15925;51.222;5.678;2022-09-30T09:15:46;23.02;;;10.63;;
28772;SDS011;15925;51.222;5.678;2022-09-30T09:17:56;18.63;;;9.52;;
28772;SDS011;15925;51.222;5.678;2022-09-30T09:20:27;32.58;;;11.13;;
28772;SDS011;15925;51.222;5.678;2022-09-30T09:22:59;22.15;;;10.07;;
28772;SDS011;15925;51.222;5.678;2022-09-30T09:25:27;24.27;;;9.10;;
28772;SDS011;15925;51.222;5.678;2022-09-30T09:30:22;16.67;;;7.73;;
28772;SDS011;15925;51.222;5.678;2022-09-30T09:32:51;17.17;;;8.10;;
28772;SDS011;15925;51.222;5.678;2022-09-30T09:37:59;23.40;;;8.43;;
28772;SDS011;15925;51.222;5.678;2022-09-30T09:46:24;11.73;;;6.28;;
28772;SDS011;15925;51.222;5.678;2022-09-30T09:51:47;8.75;;;4.97;;
28772;SDS011;15925;51.222;5.678;2022-09-30T09:54:18;8.15;;;3.88;;
28772;SDS011;15925;51.222;5.678;2022-09-30T09:56:46;8.20;;;3.88;;
28772;SDS011;15925;51.222;5.678;2022-09-30T09:59:13;8.57;;;4.03;;
28772;SDS011;15925;51.222;5.678;2022-09-30T10:01:43;6.13;;;3.00;;
28772;SDS011;15925;51.222;5.678;2022-09-30T10:04:12;5.07;;;3.15;;
28772;SDS011;15925;51.222;5.678;2022-09-30T10:09:21;4.40;;;2.33;;
28772;SDS011;15925;51.222;5.678;2022-09-30T10:14:35;6.85;;;3.47;;
28772;SDS011;15925;51.222;5.678;2022-09-30T10:17:26;7.25;;;3.22;;
28772;SDS011;15925;51.222;5.678;2022-09-30T10:19:57;4.22;;;2.38;;
28772;SDS011;15925;51.222;5.678;2022-09-30T10:22:59;5.95;;;2.95;;
28772;SDS011;15925;51.222;5.678;2022-09-30T10:28:32;9.13;;;3.67;;
28772;SDS011;15925;51.222;5.678;2022-09-30T10:33:42;8.35;;;2.65;;
28772;SDS011;15925;51.222;5.678;2022-09-30T10:36:11;7.63;;;2.22;;
28772;SDS011;15925;51.222;5.678;2022-09-30T10:41:43;8.85;;;3.03;;
28772;SDS011;15925;51.222;5.678;2022-09-30T10:44:16;4.07;;;2.40;;
28772;SDS011;15925;51.222;5.678;2022-09-30T10:46:45;4.43;;;2.00;;
28772;SDS011;15925;51.222;5.678;2022-09-30T10:49:27;7.25;;;1.85;;
28772;SDS011;15925;51.222;5.678;2022-09-30T10:52:13;5.63;;;2.55;;
28772;SDS011;15925;51.222;5.678;2022-09-30T10:57:23;7.88;;;3.03;;
28772;SDS011;15925;51.222;5.678;2022-09-30T11:02:40;6.18;;;1.80;;
28772;SDS011;15925;51.222;5.678;2022-09-30T11:05:31;5.38;;;2.30;;
28772;SDS011;15925;51.222;5.678;2022-09-30T11:16:17;4.75;;;2.08;;
28772;SDS011;15925;51.222;5.678;2022-09-30T11:21:54;2.47;;;1.35;;
28772;SDS011;15925;51.222;5.678;2022-09-30T11:24:31;3.17;;;2.00;;
28772;SDS011;15925;51.222;5.678;2022-09-30T11:41:28;9.23;;;2.95;;
28772;SDS011;15925;51.222;5.678;2022-09-30T11:49:39;9.30;;;2.40;;
28772;SDS011;15925;51.222;5.678;2022-09-30T11:57:52;6.00;;;1.90;;
28772;SDS011;15925;51.222;5.678;2022-09-30T12:00:29;11.98;;;2.83;;
28772;SDS011;15925;51.222;5.678;2022-09-30T12:02:59;7.53;;;2.72;;
28772;SDS011;15925;51.222;5.678;2022-09-30T12:05:36;7.95;;;3.08;;
28772;SDS011;15925;51.222;5.678;2022-09-30T12:11:01;5.22;;;1.27;;
28772;SDS011;15925;51.222;5.678;2022-09-30T12:13:39;4.07;;;1.38;;
28772;SDS011;15925;51.222;5.678;2022-09-30T12:16:15;5.57;;;1.20;;
28772;SDS011;15925;51.222;5.678;2022-09-30T12:18:47;8.75;;;1.73;;
28772;SDS011;15925;51.222;5.678;2022-09-30T12:21:33;2.40;;;1.00;;
28772;SDS011;15925;51.222;5.678;2022-09-30T12:24:16;3.33;;;1.20;;
28772;SDS011;15925;51.222;5.678;2022-09-30T12:27:02;9.20;;;1.08;;
28772;SDS011;15925;51.222;5.678;2022-09-30T12:29:34;1.40;;;0.65;;
28772;SDS011;15925;51.222;5.678;2022-09-30T12:32:40;2.65;;;0.82;;
28772;SDS011;15925;51.222;5.678;2022-09-30T12:49:00;0.75;;;0.45;;
28772;SDS011;15925;51.222;5.678;2022-09-30T12:51:30;0.77;;;0.43;;
28772;SDS011;15925;51.222;5.678;2022-09-30T12:54:04;0.82;;;0.20;;
28772;SDS011;15925;51.222;5.678;2022-09-30T12:56:43;0.40;;;0.40;;
28772;SDS011;15925;51.222;5.678;2022-09-30T12:59:11;0.98;;;0.40;;
28772;SDS011;15925;51.222;5.678;2022-09-30T13:01:39;1.52;;;0.80;;
28772;SDS011;15925;51.222;5.678;2022-09-30T13:11:43;0.73;;;0.45;;
28772;SDS011;15925;51.222;5.678;2022-09-30T13:14:21;0.85;;;0.35;;
28772;SDS011;15925;51.222;5.678;2022-09-30T13:16:56;1.15;;;0.52;;
28772;SDS011;15925;51.222;5.678;2022-09-30T13:19:24;0.55;;;0.35;;
28772;SDS011;15925;51.222;5.678;2022-09-30T13:32:43;1.02;;;0.70;;
28772;SDS011;15925;51.222;5.678;2022-09-30T13:40:46;2.60;;;0.50;;
28772;SDS011;15925;51.222;5.678;2022-09-30T13:46:05;1.00;;;0.28;;
28772;SDS011;15925;51.222;5.678;2022-09-30T13:48:44;0.20;;;0.20;;
28772;SDS011;15925;51.222;5.678;2022-09-30T13:51:16;6.72;;;0.55;;
28772;SDS011;15925;51.222;5.678;2022-09-30T13:53:46;1.77;;;0.43;;
28772;SDS011;15925;51.222;5.678;2022-09-30T14:14:51;0.77;;;0.43;;
28772;SDS011;15925;51.222;5.678;2022-09-30T14:17:46;0.55;;;0.32;;
28772;SDS011;15925;51.222;5.678;2022-09-30T14:20:36;1.90;;;0.35;;
28772;SDS011;15925;51.222;5.678;2022-09-30T14:23:11;1.30;;;0.63;;
28772;SDS011;15925;51.222;5.678;2022-09-30T14:25:44;1.08;;;0.40;;
28772;SDS011;15925;51.222;5.678;2022-09-30T14:28:41;3.10;;;0.30;;
28772;SDS011;15925;51.222;5.678;2022-09-30T14:31:28;2.88;;;0.45;;
28772;SDS011;15925;51.222;5.678;2022-09-30T14:33:56;0.75;;;0.40;;
28772;SDS011;15925;51.222;5.678;2022-09-30T14:36:22;8.45;;;0.50;;
28772;SDS011;15925;51.222;5.678;2022-09-30T14:38:50;8.25;;;0.93;;
28772;SDS011;15925;51.222;5.678;2022-09-30T14:41:21;0.15;;;0.15;;
28772;SDS011;15925;51.222;5.678;2022-09-30T14:43:48;1.88;;;0.50;;
28772;SDS011;15925;51.222;5.678;2022-09-30T14:46:29;1.83;;;0.50;;
28772;SDS011;15925;51.222;5.678;2022-09-30T14:49:02;1.08;;;0.70;;
28772;SDS011;15925;51.222;5.678;2022-09-30T14:51:36;1.40;;;0.85;;
28772;SDS011;15925;51.222;5.678;2022-09-30T14:54:20;3.58;;;0.95;;
28772;SDS011;15925;51.222;5.678;2022-09-30T14:56:48;0.82;;;0.40;;
28772;SDS011;15925;51.222;5.678;2022-09-30T15:01:42;1.58;;;0.75;;
28772;SDS011;15925;51.222;5.678;2022-09-30T15:04:12;0.82;;;0.52;;
28772;SDS011;15925;51.222;5.678;2022-09-30T15:06:42;0.38;;;0.28;;
28772;SDS011;15925;51.222;5.678;2022-09-30T15:11:56;2.38;;;0.50;;
28772;SDS011;15925;51.222;5.678;2022-09-30T15:14:26;2.00;;;0.40;;
28772;SDS011;15925;51.222;5.678;2022-09-30T15:16:53;5.05;;;0.43;;
28772;SDS011;15925;51.222;5.678;2022-09-30T15:19:25;0.52;;;0.38;;
28772;SDS011;15925;51.222;5.678;2022-09-30T15:21:55;0.60;;;0.22;;
28772;SDS011;15925;51.222;5.678;2022-09-30T15:24:26;0.63;;;0.45;;
28772;SDS011;15925;51.222;5.678;2022-09-30T15:26:57;2.40;;;0.70;;
28772;SDS011;15925;51.222;5.678;2022-09-30T15:29:24;4.55;;;0.70;;
28772;SDS011;15925;51.222;5.678;2022-09-30T15:32:02;0.77;;;0.38;;
28772;SDS011;15925;51.222;5.678;2022-09-30T15:34:38;0.88;;;0.32;;
28772;SDS011;15925;51.222;5.678;2022-09-30T15:37:04;0.40;;;0.40;;
28772;SDS011;15925;51.222;5.678;2022-09-30T15:39:31;1.20;;;0.40;;
28772;SDS011;15925;51.222;5.678;2022-09-30T15:47:59;1.85;;;0.35;;
28772;SDS011;15925;51.222;5.678;2022-09-30T15:50:51;0.68;;;0.40;;
28772;SDS011;15925;51.222;5.678;2022-09-30T15:55:56;1.65;;;0.75;;
28772;SDS011;15925;51.222;5.678;2022-09-30T16:01:09;0.85;;;0.45;;
28772;SDS011;15925;51.222;5.678;2022-09-30T16:03:44;1.85;;;0.70;;
28772;SDS011;15925;51.222;5.678;2022-09-30T16:06:42;7.38;;;0.57;;
28772;SDS011;15925;51.222;5.678;2022-09-30T16:11:43;1.27;;;0.45;;
28772;SDS011;15925;51.222;5.678;2022-09-30T16:14:23;0.60;;;0.40;;
28772;SDS011;15925;51.222;5.678;2022-09-30T16:16:59;0.38;;;0.35;;
28772;SDS011;15925;51.222;5.678;2022-09-30T16:19:28;0.30;;;0.20;;
28772;SDS011;15925;51.222;5.678;2022-09-30T16:21:55;0.75;;;0.10;;
28772;SDS011;15925;51.222;5.678;2022-09-30T16:26:48;0.20;;;0.20;;
28772;SDS011;15925;51.222;5.678;2022-09-30T16:31:52;0.82;;;0.50;;
28772;SDS011;15925;51.222;5.678;2022-09-30T16:34:28;0.32;;;0.32;;
28772;SDS011;15925;51.222;5.678;2022-09-30T16:39:50;0.85;;;0.38;;
28772;SDS011;15925;51.222;5.678;2022-09-30T16:42:16;0.73;;;0.30;;
28772;SDS011;15925;51.222;5.678;2022-09-30T16:44:42;2.75;;;0.32;;
28772;SDS011;15925;51.222;5.678;2022-09-30T16:49:39;1.85;;;0.47;;
28772;SDS011;15925;51.222;5.678;2022-09-30T16:52:06;0.50;;;0.30;;
28772;SDS011;15925;51.222;5.678;2022-09-30T16:54:34;0.65;;;0.32;;
28772;SDS011;15925;51.222;5.678;2022-09-30T16:56:59;0.73;;;0.30;;
28772;SDS011;15925;51.222;5.678;2022-09-30T16:59:25;0.50;;;0.40;;
28772;SDS011;15925;51.222;5.678;2022-09-30T17:01:51;0.53;;;0.30;;
28772;SDS011;15925;51.222;5.678;2022-09-30T17:04:17;0.98;;;0.35;;
28772;SDS011;15925;51.222;5.678;2022-09-30T17:06:43;3.25;;;0.52;;
28772;SDS011;15925;51.222;5.678;2022-09-30T17:09:09;10.50;;;0.57;;
28772;SDS011;15925;51.222;5.678;2022-09-30T17:11:34;0.83;;;0.63;;
28772;SDS011;15925;51.222;5.678;2022-09-30T17:14:02;1.17;;;0.43;;
28772;SDS011;15925;51.222;5.678;2022-09-30T17:16:29;1.95;;;0.30;;
28772;SDS011;15925;51.222;5.678;2022-09-30T17:18:55;0.80;;;0.30;;
28772;SDS011;15925;51.222;5.678;2022-09-30T17:21:22;0.20;;;0.20;;
28772;SDS011;15925;51.222;5.678;2022-09-30T17:23:49;1.02;;;0.35;;
28772;SDS011;15925;51.222;5.678;2022-09-30T17:26:16;5.65;;;0.38;;
28772;SDS011;15925;51.222;5.678;2022-09-30T17:28:42;0.40;;;0.40;;
28772;SDS011;15925;51.222;5.678;2022-09-30T17:31:09;0.65;;;0.57;;
28772;SDS011;15925;51.222;5.678;2022-09-30T17:33:36;0.50;;;0.40;;
28772;SDS011;15925;51.222;5.678;2022-09-30T17:36:04;1.15;;;0.60;;
28772;SDS011;15925;51.222;5.678;2022-09-30T17:38:32;0.35;;;0.30;;
28772;SDS011;15925;51.222;5.678;2022-09-30T17:40:59;0.50;;;0.40;;
28772;SDS011;15925;51.222;5.678;2022-09-30T17:43:43;4.43;;;0.50;;
28772;SDS011;15925;51.222;5.678;2022-09-30T17:46:10;0.35;;;0.28;;
28772;SDS011;15925;51.222;5.678;2022-09-30T17:48:37;6.50;;;0.60;;
28772;SDS011;15925;51.222;5.678;2022-09-30T17:51:03;0.52;;;0.50;;
28772;SDS011;15925;51.222;5.678;2022-09-30T17:53:30;1.95;;;0.60;;
28772;SDS011;15925;51.222;5.678;2022-09-30T17:56:00;1.80;;;0.80;;
28772;SDS011;15925;51.222;5.678;2022-09-30T17:58:36;6.55;;;0.75;;
28772;SDS011;15925;51.222;5.678;2022-09-30T18:01:07;1.05;;;0.75;;
28772;SDS011;15925;51.222;5.678;2022-09-30T18:03:34;1.63;;;0.85;;
28772;SDS011;15925;51.222;5.678;2022-09-30T18:08:26;4.93;;;0.70;;
28772;SDS011;15925;51.222;5.678;2022-09-30T18:10:52;0.70;;;0.40;;
28772;SDS011;15925;51.222;5.678;2022-09-30T18:13:19;0.45;;;0.45;;
28772;SDS011;15925;51.222;5.678;2022-09-30T18:15:45;3.37;;;0.50;;
28772;SDS011;15925;51.222;5.678;2022-09-30T18:18:11;1.77;;;0.40;;
28772;SDS011;15925;51.222;5.678;2022-09-30T18:20:44;0.30;;;0.25;;
28772;SDS011;15925;51.222;5.678;2022-09-30T18:23:12;4.25;;;0.75;;
28772;SDS011;15925;51.222;5.678;2022-09-30T18:25:38;0.22;;;0.22;;
28772;SDS011;15925;51.222;5.678;2022-09-30T18:28:08;0.57;;;0.57;;
28772;SDS011;15925;51.222;5.678;2022-09-30T18:30:35;0.75;;;0.35;;
28772;SDS011;15925;51.222;5.678;2022-09-30T18:33:02;3.67;;;0.40;;
28772;SDS011;15925;51.222;5.678;2022-09-30T18:35:31;0.50;;;0.50;;
28772;SDS011;15925;51.222;5.678;2022-09-30T18:37:58;2.35;;;0.80;;
28772;SDS011;15925;51.222;5.678;2022-09-30T18:40:25;2.85;;;0.75;;
28772;SDS011;15925;51.222;5.678;2022-09-30T18:42:53;1.40;;;0.77;;
28772;SDS011;15925;51.222;5.678;2022-09-30T18:45:27;2.65;;;0.60;;
28772;SDS011;15925;51.222;5.678;2022-09-30T18:47:55;3.67;;;1.27;;
28772;SDS011;15925;51.222;5.678;2022-09-30T18:50:22;1.67;;;1.15;;
28772;SDS011;15925;51.222;5.678;2022-09-30T18:52:49;1.95;;;1.10;;
28772;SDS011;15925;51.222;5.678;2022-09-30T18:55:16;2.50;;;0.55;;
28772;SDS011;15925;51.222;5.678;2022-09-30T18:57:42;1.05;;;0.82;;
28772;SDS011;15925;51.222;5.678;2022-09-30T19:00:11;1.05;;;0.68;;
28772;SDS011;15925;51.222;5.678;2022-09-30T19:02:38;1.58;;;0.88;;
28772;SDS011;15925;51.222;5.678;2022-09-30T19:05:05;0.55;;;0.52;;
28772;SDS011;15925;51.222;5.678;2022-09-30T19:07:31;3.55;;;0.70;;
28772;SDS011;15925;51.222;5.678;2022-09-30T19:09:59;2.03;;;0.95;;
28772;SDS011;15925;51.222;5.678;2022-09-30T19:12:30;1.83;;;0.52;;
28772;SDS011;15925;51.222;5.678;2022-09-30T19:14:57;1.60;;;0.57;;
28772;SDS011;15925;51.222;5.678;2022-09-30T19:17:24;1.33;;;0.88;;
28772;SDS011;15925;51.222;5.678;2022-09-30T19:19:52;3.53;;;0.68;;
28772;SDS011;15925;51.222;5.678;2022-09-30T19:22:17;3.33;;;1.07;;